Ital Oriente — A8LN2 — position and weather

sailwx.info

Track history (hours):
 
Tides and Currents Weather Stations Pressure Air Temp Water Temp Dewpoint Dewpoint Depression Visibility Wind Speed Wind Dir Waves Ship Positions

Ital Oriente

Last reported at 2015-Jul-02 05:26 UTC. Time now 2015-Jul-02 16:29 UTC.
Position N 40°56' E 028°40'.

Length 222 m; draft 7.6 m.

Type: Cargo ship. MMSI: 636091278.

Date/timePositionNaut miles runAvg speedWind from/ knotsBaromVisibWave heightAir tempDewpointWater temp
2015-Jul-02 05:26N 40°56' E 028°40'0 0.3
2015-Jul-02 04:23N 40°56' E 028°41'3 3.1
2015-Jul-02 03:27N 40°54' E 028°40'5 4.9
2015-Jul-02 02:31N 40°50' E 028°36'27314.1
2015-Jul-01 07:12N 37°44' E 024°19'2614.4
2015-Jul-01 05:24N 37°38' E 023°47'1416.2
2015-Jul-01 04:33N 37°49' E 023°37'9 8.4
2015-Jul-01 03:32N 37°57' E 023°36'0 0.0
2015-Jul-01 02:32N 37°57' E 023°36'0 0.0
2015-Jul-01 01:32N 37°57' E 023°36'0 0.0
2015-Jul-01 00:32N 37°57' E 023°36'0 0.0
2015-Jun-30 23:32N 37°57' E 023°36'0 0.0
2015-Jun-30 22:32N 37°57' E 023°36'0 0.0
2015-Jun-30 21:32N 37°57' E 023°36'0 0.0
2015-Jun-30 20:32N 37°57' E 023°36'0 0.0
2015-Jun-30 19:32N 37°57' E 023°36'0 0.0
2015-Jun-30 18:32N 37°57' E 023°36'0 0.0
2015-Jun-30 17:32N 37°57' E 023°36'0 0.0
2015-Jun-30 16:33N 37°57' E 023°36'0 0.0
2015-Jun-30 15:33N 37°57' E 023°36'0 0.0
2015-Jun-30 14:33N 37°57' E 023°36'0 0.0
2015-Jun-30 13:30N 37°57' E 023°36'0 0.0
2015-Jun-30 12:33N 37°57' E 023°36'0 0.0
2015-Jun-30 11:13N 37°57' E 023°36'0 0.0
2015-Jun-30 10:31N 37°57' E 023°36'0 0.0
2015-Jun-30 09:31N 37°57' E 023°36'0 0.0
2015-Jun-30 08:31N 37°57' E 023°36'0 0.0
2015-Jun-30 07:31N 37°57' E 023°36'0 0.0
2015-Jun-30 06:31N 37°57' E 023°36'0 0.0
2015-Jun-30 05:31N 37°57' E 023°36'0 0.0
2015-Jun-30 04:32N 37°57' E 023°36'3 3.4
2015-Jun-30 03:33N 37°54' E 023°37'1111.0
2015-Jun-30 02:33N 37°44' E 023°43'1514.9
2015-Jun-30 01:32N 37°35' E 023°59'1615.9
2015-Jun-30 00:33N 37°43' E 024°16'1818.0
2015-Jun-29 23:32N 37°55' E 024°34'2315.9
2015-Jun-29 22:06N 38°18' E 024°32'  
2015-Jun-24 14:30N 40°56' E 028°40'0 0.0
2015-Jun-24 07:29N 40°55' E 028°40'0 0.0
2015-Jun-24 00:23N 40°55' E 028°40'29510.2
2015-Jun-22 19:31N 37°57' E 023°35'0 0.0
2015-Jun-22 18:31N 37°57' E 023°35'0 0.0
2015-Jun-22 17:31N 37°57' E 023°35'0 0.0
2015-Jun-22 16:25N 37°57' E 023°35'0 0.0
2015-Jun-22 15:28N 37°57' E 023°35'0 0.0
2015-Jun-22 14:31N 37°57' E 023°35'0 0.0
2015-Jun-22 13:31N 37°57' E 023°35'0 0.0
2015-Jun-22 12:28N 37°57' E 023°35'0 0.0
2015-Jun-22 11:28N 37°57' E 023°35'0 0.0
2015-Jun-22 10:25N 37°57' E 023°35'0 0.0
2015-Jun-22 09:31N 37°57' E 023°35'0 0.0
2015-Jun-22 08:31N 37°57' E 023°35'0 0.0
2015-Jun-22 07:31N 37°57' E 023°35'0 0.0
2015-Jun-22 06:31N 37°57' E 023°35'0 0.0
2015-Jun-22 05:31N 37°57' E 023°35'  
Track history (hours):
 
Tides and Currents Weather Stations Pressure Air Temp Water Temp Dewpoint Dewpoint Depression Visibility Wind Speed Wind Dir Waves Ship Positions

Ital Oriente

Last reported at 2015-Jul-02 05:26 UTC. Time now 2015-Jul-02 16:29 UTC.
Position N 40°56' E 028°40'.

Length 222 m; draft 7.6 m.

Type: Cargo ship. MMSI: 636091278.

Date/timePositionNaut miles runAvg speedWind from/ knotsBaromVisibWave heightAir tempDewpointWater temp
2015-Jul-02 05:26N 40°56' E 028°40'0 0.3
2015-Jul-02 04:23N 40°56' E 028°41'3 3.1
2015-Jul-02 03:27N 40°54' E 028°40'5 4.9
2015-Jul-02 02:31N 40°50' E 028°36'27314.1
2015-Jul-01 07:12N 37°44' E 024°19'2614.4
2015-Jul-01 05:24N 37°38' E 023°47'1416.2
2015-Jul-01 04:33N 37°49' E 023°37'9 8.4
2015-Jul-01 03:32N 37°57' E 023°36'0 0.0
2015-Jul-01 02:32N 37°57' E 023°36'0 0.0
2015-Jul-01 01:32N 37°57' E 023°36'0 0.0
2015-Jul-01 00:32N 37°57' E 023°36'0 0.0
2015-Jun-30 23:32N 37°57' E 023°36'0 0.0
2015-Jun-30 22:32N 37°57' E 023°36'0 0.0
2015-Jun-30 21:32N 37°57' E 023°36'0 0.0
2015-Jun-30 20:32N 37°57' E 023°36'0 0.0
2015-Jun-30 19:32N 37°57' E 023°36'0 0.0
2015-Jun-30 18:32N 37°57' E 023°36'0 0.0
2015-Jun-30 17:32N 37°57' E 023°36'0 0.0
2015-Jun-30 16:33N 37°57' E 023°36'0 0.0
2015-Jun-30 15:33N 37°57' E 023°36'0 0.0
2015-Jun-30 14:33N 37°57' E 023°36'0 0.0
2015-Jun-30 13:30N 37°57' E 023°36'0 0.0
2015-Jun-30 12:33N 37°57' E 023°36'0 0.0
2015-Jun-30 11:13N 37°57' E 023°36'0 0.0
2015-Jun-30 10:31N 37°57' E 023°36'0 0.0
2015-Jun-30 09:31N 37°57' E 023°36'0 0.0
2015-Jun-30 08:31N 37°57' E 023°36'0 0.0
2015-Jun-30 07:31N 37°57' E 023°36'0 0.0
2015-Jun-30 06:31N 37°57' E 023°36'0 0.0
2015-Jun-30 05:31N 37°57' E 023°36'0 0.0
2015-Jun-30 04:32N 37°57' E 023°36'3 3.4
2015-Jun-30 03:33N 37°54' E 023°37'1111.0
2015-Jun-30 02:33N 37°44' E 023°43'1514.9
2015-Jun-30 01:32N 37°35' E 023°59'1615.9
2015-Jun-30 00:33N 37°43' E 024°16'1818.0
2015-Jun-29 23:32N 37°55' E 024°34'2315.9
2015-Jun-29 22:06N 38°18' E 024°32'  
2015-Jun-24 14:30N 40°56' E 028°40'0 0.0
2015-Jun-24 07:29N 40°55' E 028°40'0 0.0
2015-Jun-24 00:23N 40°55' E 028°40'29510.2
2015-Jun-22 19:31N 37°57' E 023°35'0 0.0
2015-Jun-22 18:31N 37°57' E 023°35'0 0.0
2015-Jun-22 17:31N 37°57' E 023°35'0 0.0
2015-Jun-22 16:25N 37°57' E 023°35'0 0.0
2015-Jun-22 15:28N 37°57' E 023°35'0 0.0
2015-Jun-22 14:31N 37°57' E 023°35'0 0.0
2015-Jun-22 13:31N 37°57' E 023°35'0 0.0
2015-Jun-22 12:28N 37°57' E 023°35'0 0.0
2015-Jun-22 11:28N 37°57' E 023°35'0 0.0
2015-Jun-22 10:25N 37°57' E 023°35'0 0.0
2015-Jun-22 09:31N 37°57' E 023°35'0 0.0
2015-Jun-22 08:31N 37°57' E 023°35'0 0.0
2015-Jun-22 07:31N 37°57' E 023°35'0 0.0
2015-Jun-22 06:31N 37°57' E 023°35'0 0.0
2015-Jun-22 05:31N 37°57' E 023°35'  

Dump ship's entire track history